Time;durP1;ratioP1;P1;durP2;ratioP2;P2;SDS_P1;SDS_P2;PMS_P1;PMS_P2;Temp;Humidity;BMP_temperature;BMP_pressure;BME280_temperature;BME280_humidity;BME280_pressure;Samples;Min_cycle;Max_cycle;Signal;HPM_P1;HPM_P2
2021/07/18 00:02:14;;;;;;;16.38;11.07;;;;;11.00;100870.00;;;;5046627;28;20372;-70
2021/07/18 00:04:41;;;;;;;16.67;13.68;;;;;11.00;100863.00;;;;5046461;28;20044;-71
2021/07/18 00:07:07;;;;;;;26.80;23.50;;;;;10.90;100879.00;;;;5046666;28;20416;-72
2021/07/18 00:09:34;;;;;;;26.98;22.08;;;;;10.80;100859.00;;;;5045641;28;20044;-74
2021/07/18 00:12:01;;;;;;;19.83;17.08;;;;;10.80;100876.00;;;;5044498;28;20482;-71
2021/07/18 00:14:27;;;;;;;17.73;15.32;;;;;10.90;100871.00;;;;5046098;28;20381;-70
2021/07/18 00:16:54;;;;;;;24.75;16.08;;;;;10.90;100860.00;;;;5046105;28;20025;-72
2021/07/18 00:19:20;;;;;;;18.42;14.88;;;;;10.80;100863.00;;;;5056956;28;20032;-69
2021/07/18 00:21:47;;;;;;;17.90;13.35;;;;;10.80;100870.00;;;;5054997;28;20025;-70
2021/07/18 00:24:14;;;;;;;17.60;12.85;;;;;10.70;100854.00;;;;5055055;28;20034;-71
2021/07/18 00:26:40;;;;;;;16.50;10.07;;;;;10.70;100860.00;;;;5056143;28;20028;-72
2021/07/18 00:29:07;;;;;;;16.83;11.05;;;;;10.70;100863.00;;;;5055316;28;20484;-73
2021/07/18 00:31:33;;;;;;;13.25;10.40;;;;;10.70;100862.00;;;;5052058;28;20030;-70
2021/07/18 00:34:00;;;;;;;13.35;11.95;;;;;10.80;100861.00;;;;5046099;28;20021;-69
2021/07/18 00:36:26;;;;;;;14.95;11.75;;;;;10.80;100876.00;;;;5046135;28;20036;-72
2021/07/18 00:38:53;;;;;;;24.67;14.45;;;;;10.80;100879.00;;;;5049641;28;20032;-73
2021/07/18 00:41:19;;;;;;;24.77;20.42;;;;;10.90;100888.00;;;;5048796;28;20492;-71
2021/07/18 00:43:46;;;;;;;23.75;17.30;;;;;11.10;100869.00;;;;5049491;28;20075;-72
2021/07/18 00:46:14;;;;;;;19.85;16.52;;;;;11.30;100874.00;;;;5049949;28;20064;-73
2021/07/18 00:48:40;;;;;;;24.98;16.38;;;;;11.40;100877.00;;;;5049999;28;20048;-73
2021/07/18 00:51:07;;;;;;;19.08;16.23;;;;;11.50;100867.00;;;;5054533;28;20071;-70
2021/07/18 00:53:33;;;;;;;19.25;14.90;;;;;11.70;100887.00;;;;5059396;28;20025;-73
2021/07/18 00:56:00;;;;;;;20.42;14.00;;;;;11.80;100881.00;;;;5058104;28;20021;-70
2021/07/18 00:58:30;;;;;;;20.33;12.60;;;;;11.90;100882.00;;;;5057470;28;20029;-70
2021/07/18 01:00:58;;;;;;;15.77;11.93;;;;;12.00;100881.00;;;;5059735;28;20528;-68
2021/07/18 01:03:27;;;;;;;15.50;11.90;;;;;12.00;100889.00;;;;5059468;28;20113;-73
2021/07/18 01:05:54;;;;;;;19.70;11.77;;;;;12.00;100907.00;;;;5063530;28;20477;-71
2021/07/18 01:08:21;;;;;;;12.85;10.35;;;;;12.10;100923.00;;;;5068895;28;20024;-73
2021/07/18 01:10:47;;;;;;;12.02;9.68;;;;;12.20;100920.00;;;;5068971;28;20028;-74
2021/07/18 01:13:15;;;;;;;21.00;10.93;;;;;12.20;100934.00;;;;5068962;28;20119;-71
2021/07/18 01:15:42;;;;;;;16.30;9.98;;;;;12.20;100921.00;;;;5068573;28;20040;-70
2021/07/18 01:18:10;;;;;;;14.65;9.18;;;;;12.20;100926.00;;;;5068877;28;20103;-74
2021/07/18 01:20:38;;;;;;;15.18;7.95;;;;;12.30;100926.00;;;;5069064;28;20031;-71
2021/07/18 01:23:05;;;;;;;10.07;7.35;;;;;12.40;100946.00;;;;5068622;28;20035;-74
2021/07/18 01:25:34;;;;;;;11.82;7.55;;;;;12.30;100951.00;;;;5068751;28;20047;-71
2021/07/18 01:28:06;;;;;;;9.13;6.97;;;;;12.40;100952.00;;;;5068800;28;20493;-72
2021/07/18 01:30:32;;;;;;;12.20;7.18;;;;;12.40;100955.00;;;;5068473;28;20070;-71
2021/07/18 01:32:59;;;;;;;14.38;6.63;;;;;12.40;100959.00;;;;5068443;28;20063;-72
2021/07/18 01:35:28;;;;;;;6.97;5.47;;;;;12.30;100959.00;;;;5068168;28;20033;-72
2021/07/18 01:38:00;;;;;;;7.57;4.85;;;;;12.30;100958.00;;;;5068109;28;20033;-70
2021/07/18 01:40:26;;;;;;;8.40;4.20;;;;;12.40;100951.00;;;;5069093;28;20028;-70
2021/07/18 01:42:55;;;;;;;8.23;4.72;;;;;12.30;100984.00;;;;5068544;28;20040;-72
2021/07/18 01:45:23;;;;;;;5.15;3.40;;;;;12.30;100970.00;;;;5068873;28;20044;-72
2021/07/18 01:47:49;;;;;;;2.88;2.40;;;;;12.30;100976.00;;;;5068455;28;20028;-71
2021/07/18 01:50:16;;;;;;;2.97;2.67;;;;;12.30;100986.00;;;;5068273;28;20517;-73
2021/07/18 01:52:43;;;;;;;4.47;3.22;;;;;12.20;100998.00;;;;5068757;28;20020;-69
2021/07/18 01:55:12;;;;;;;3.78;2.75;;;;;12.20;100997.00;;;;5068710;28;20039;-72
2021/07/18 01:57:40;;;;;;;2.78;2.50;;;;;12.10;100992.00;;;;5068166;28;20036;-73
2021/07/18 02:00:08;;;;;;;7.72;2.67;;;;;12.10;100977.00;;;;5067268;28;20089;-71
2021/07/18 02:02:35;;;;;;;6.15;2.78;;;;;11.90;100997.00;;;;5067533;28;20086;-70
2021/07/18 02:05:04;;;;;;;4.15;3.15;;;;;11.90;100978.00;;;;5068178;28;20070;-70
2021/07/18 02:07:30;;;;;;;6.95;2.63;;;;;11.80;100973.00;;;;5068106;28;20034;-71
2021/07/18 02:09:57;;;;;;;2.67;2.40;;;;;11.70;100981.00;;;;5068527;28;20396;-72
2021/07/18 02:12:23;;;;;;;9.57;2.67;;;;;11.60;100980.00;;;;5067967;28;20572;-72
2021/07/18 02:14:50;;;;;;;4.20;2.40;;;;;11.60;101002.00;;;;5068027;28;20063;-68
2021/07/18 02:17:17;;;;;;;9.10;3.00;;;;;11.70;100997.00;;;;5068347;28;20036;-68
2021/07/18 02:19:43;;;;;;;3.85;2.42;;;;;11.60;100987.00;;;;5067873;28;20798;-70
2021/07/18 02:22:11;;;;;;;3.95;2.50;;;;;11.60;100991.00;;;;5067952;28;20032;-72
2021/07/18 02:24:38;;;;;;;4.80;2.90;;;;;11.50;100971.00;;;;5067782;28;20028;-70
2021/07/18 02:27:07;;;;;;;5.80;3.28;;;;;11.50;100978.00;;;;5067912;28;20036;-71
2021/07/18 02:29:34;;;;;;;6.05;2.92;;;;;11.50;100996.00;;;;5067489;28;20115;-71
2021/07/18 02:32:00;;;;;;;3.20;2.90;;;;;11.50;100989.00;;;;5067352;28;20039;-72
2021/07/18 02:34:27;;;;;;;5.07;2.67;;;;;11.40;100992.00;;;;5067703;28;20082;-71
2021/07/18 02:36:53;;;;;;;4.97;2.38;;;;;11.50;100985.00;;;;5068561;28;20037;-71
2021/07/18 02:39:21;;;;;;;4.57;2.65;;;;;11.50;101000.00;;;;5067567;28;20482;-70
2021/07/18 02:41:47;;;;;;;3.85;3.08;;;;;11.50;100995.00;;;;5066955;28;20115;-72
2021/07/18 02:44:14;;;;;;;5.03;2.58;;;;;11.50;100995.00;;;;5067068;28;20033;-73
2021/07/18 02:46:41;;;;;;;4.63;2.58;;;;;11.50;100996.00;;;;5067629;28;20037;-72
2021/07/18 02:49:07;;;;;;;7.03;4.82;;;;;11.40;100996.00;;;;5067001;28;20040;-69
2021/07/18 02:51:34;;;;;;;5.30;2.97;;;;;11.40;100992.00;;;;5067002;28;20063;-72
2021/07/18 02:54:01;;;;;;;5.47;3.30;;;;;11.40;100995.00;;;;5067397;28;20059;-70
2021/07/18 02:56:27;;;;;;;4.45;2.92;;;;;11.30;101004.00;;;;5067245;28;20032;-70
2021/07/18 02:58:54;;;;;;;6.18;2.58;;;;;11.40;101024.00;;;;5066810;28;20074;-73
2021/07/18 03:01:20;;;;;;;5.40;3.30;;;;;11.50;101011.00;;;;5066850;28;20032;-72
2021/07/18 03:03:48;;;;;;;2.58;2.38;;;;;11.60;101015.00;;;;5067658;28;20028;-68
2021/07/18 03:06:14;;;;;;;2.97;2.70;;;;;11.60;101029.00;;;;5067579;28;20444;-72
2021/07/18 03:08:41;;;;;;;6.35;2.53;;;;;11.60;101033.00;;;;5067272;28;20031;-72
2021/07/18 03:11:07;;;;;;;4.38;2.67;;;;;11.60;101015.00;;;;5066939;28;20044;-72
2021/07/18 03:13:34;;;;;;;2.47;2.28;;;;;11.60;101017.00;;;;5066633;28;20052;-70
2021/07/18 03:16:01;;;;;;;4.22;2.35;;;;;11.60;101036.00;;;;5066933;28;20070;-69
2021/07/18 03:18:27;;;;;;;12.45;2.70;;;;;11.60;101029.00;;;;5066791;28;20060;-72
2021/07/18 03:20:54;;;;;;;2.80;2.15;;;;;11.60;101042.00;;;;5066694;28;20491;-70
2021/07/18 03:23:20;;;;;;;4.18;2.08;;;;;11.50;101029.00;;;;5066978;28;20020;-69
2021/07/18 03:25:47;;;;;;;5.32;4.15;;;;;11.50;101034.00;;;;5066268;28;20111;-71
2021/07/18 03:28:13;;;;;;;4.03;2.30;;;;;11.50;101029.00;;;;5067653;28;20032;-71
2021/07/18 03:30:40;;;;;;;7.55;2.22;;;;;11.60;101033.00;;;;5066833;28;20031;-73
2021/07/18 03:33:06;;;;;;;6.43;2.15;;;;;11.60;101055.00;;;;5067396;28;20907;-71
2021/07/18 03:35:33;;;;;;;3.65;2.45;;;;;11.50;101055.00;;;;5066645;28;20082;-71
2021/07/18 03:38:00;;;;;;;4.22;2.20;;;;;11.50;101030.00;;;;5066793;28;20450;-71
2021/07/18 03:40:28;;;;;;;7.20;2.30;;;;;11.60;101038.00;;;;5066029;28;20044;-73
2021/07/18 03:42:56;;;;;;;9.27;2.40;;;;;11.50;101038.00;;;;5066231;28;20458;-74
2021/07/18 03:45:23;;;;;;;3.28;1.90;;;;;11.50;101033.00;;;;5066272;28;20107;-72
2021/07/18 03:47:49;;;;;;;2.25;1.92;;;;;11.50;101042.00;;;;5066792;28;20032;-72
2021/07/18 03:50:16;;;;;;;10.85;1.75;;;;;11.50;101040.00;;;;5066552;28;20131;-71
2021/07/18 03:52:43;;;;;;;2.10;1.75;;;;;11.40;101049.00;;;;5066734;28;20109;-71
2021/07/18 03:55:10;;;;;;;1.92;1.80;;;;;11.40;101051.00;;;;5066860;28;20036;-70
2021/07/18 03:57:37;;;;;;;2.15;1.73;;;;;11.40;101040.00;;;;5066839;28;20039;-71
2021/07/18 04:00:05;;;;;;;1.98;1.70;;;;;11.30;101049.00;;;;5066486;28;20523;-69
2021/07/18 04:02:32;;;;;;;3.60;1.85;;;;;11.40;101063.00;;;;5066508;28;20056;-70
2021/07/18 04:04:58;;;;;;;2.05;1.77;;;;;11.30;101061.00;;;;5066147;28;20039;-71
2021/07/18 04:07:25;;;;;;;3.67;1.50;;;;;11.30;101045.00;;;;5066050;28;20620;-71
2021/07/18 04:09:52;;;;;;;1.95;1.33;;;;;11.30;101057.00;;;;5066462;28;20037;-70
2021/07/18 04:12:18;;;;;;;4.97;1.60;;;;;11.30;101051.00;;;;5068029;28;20075;-72
2021/07/18 04:14:45;;;;;;;2.05;1.42;;;;;11.20;101059.00;;;;5070324;28;20386;-71
2021/07/18 04:17:11;;;;;;;4.20;1.52;;;;;11.10;101057.00;;;;5070293;28;20037;-71
2021/07/18 04:19:38;;;;;;;3.85;1.10;;;;;11.00;101050.00;;;;5070620;28;20097;-71
2021/07/18 04:22:05;;;;;;;4.75;1.55;;;;;11.10;101074.00;;;;5070328;28;20568;-71
2021/07/18 04:24:31;;;;;;;1.88;1.40;;;;;11.10;101064.00;;;;5070587;28;20024;-71
2021/07/18 04:26:58;;;;;;;6.22;1.90;;;;;11.00;101063.00;;;;5070335;28;20031;-70
2021/07/18 04:29:24;;;;;;;2.78;1.40;;;;;11.00;101080.00;;;;5070379;28;20032;-71
2021/07/18 04:31:51;;;;;;;3.33;1.95;;;;;10.90;101087.00;;;;5070675;28;20036;-71
2021/07/18 04:34:19;;;;;;;3.05;1.35;;;;;11.00;101077.00;;;;5069971;28;20036;-73
2021/07/18 04:36:46;;;;;;;4.25;1.35;;;;;10.90;101076.00;;;;5070475;28;20475;-68
2021/07/18 04:39:14;;;;;;;10.52;1.40;;;;;10.90;101085.00;;;;5069945;28;20078;-72
2021/07/18 04:41:40;;;;;;;1.55;1.10;;;;;10.80;101082.00;;;;5069908;28;20124;-69
2021/07/18 04:44:07;;;;;;;5.85;1.30;;;;;10.80;101083.00;;;;5069924;28;20024;-73
2021/07/18 04:46:33;;;;;;;4.90;1.13;;;;;10.80;101064.00;;;;5070298;28;20028;-72
2021/07/18 04:49:00;;;;;;;1.02;0.93;;;;;10.80;101068.00;;;;5069821;28;20036;-68
2021/07/18 04:51:26;;;;;;;7.32;0.98;;;;;10.80;101084.00;;;;5069447;28;20052;-72
2021/07/18 04:53:53;;;;;;;1.83;1.10;;;;;10.70;101074.00;;;;5069774;28;20040;-72
2021/07/18 04:56:21;;;;;;;1.77;1.00;;;;;10.70;101093.00;;;;5069589;28;20024;-69
2021/07/18 04:58:48;;;;;;;0.80;0.80;;;;;10.60;101084.00;;;;5069545;28;20032;-71
2021/07/18 05:01:15;;;;;;;5.00;0.85;;;;;10.60;101087.00;;;;5069685;28;20032;-73
2021/07/18 05:03:41;;;;;;;1.00;0.75;;;;;10.60;101073.00;;;;5069828;28;20042;-71
2021/07/18 05:06:08;;;;;;;0.93;0.77;;;;;10.50;101092.00;;;;5069543;28;20036;-72
2021/07/18 05:08:35;;;;;;;3.58;0.88;;;;;10.50;101093.00;;;;5068003;28;20112;-73
2021/07/18 05:11:02;;;;;;;1.20;0.90;;;;;10.50;101072.00;;;;5069834;28;20070;-69
2021/07/18 05:13:29;;;;;;;1.65;0.85;;;;;10.50;101096.00;;;;5070065;28;20029;-71
2021/07/18 05:15:56;;;;;;;1.80;1.02;;;;;10.40;101094.00;;;;5069552;28;20407;-70
2021/07/18 05:18:22;;;;;;;1.05;0.82;;;;;10.40;101090.00;;;;5068530;28;20480;-70
2021/07/18 05:20:49;;;;;;;1.00;0.90;;;;;10.30;101082.00;;;;5068999;28;20475;-70
2021/07/18 05:23:15;;;;;;;1.60;0.82;;;;;10.30;101075.00;;;;5068594;28;20031;-70
2021/07/18 05:25:42;;;;;;;2.08;0.90;;;;;10.20;101060.00;;;;5069488;28;20459;-70
2021/07/18 05:28:09;;;;;;;0.73;0.70;;;;;10.20;101074.00;;;;5068678;28;20379;-70
2021/07/18 05:30:35;;;;;;;1.10;0.90;;;;;10.00;101060.00;;;;5069369;28;20035;-72
2021/07/18 05:33:02;;;;;;;3.92;0.93;;;;;9.90;101074.00;;;;5068697;28;20542;-71
2021/07/18 05:35:29;;;;;;;0.88;0.60;;;;;9.70;101061.00;;;;5069045;28;20399;-70
2021/07/18 05:37:55;;;;;;;2.25;0.68;;;;;9.50;101067.00;;;;5069072;28;20119;-71
2021/07/18 05:40:22;;;;;;;2.67;0.82;;;;;9.40;101056.00;;;;5068835;28;20067;-72
2021/07/18 05:42:48;;;;;;;0.70;0.70;;;;;9.30;101067.00;;;;5069225;28;20475;-70
2021/07/18 05:45:15;;;;;;;2.40;0.77;;;;;9.20;101060.00;;;;5068592;28;20060;-71
2021/07/18 05:47:42;;;;;;;2.40;0.80;;;;;9.10;101056.00;;;;5068732;28;20400;-71
2021/07/18 05:50:10;;;;;;;1.58;0.73;;;;;9.00;101055.00;;;;5068604;28;20059;-71
2021/07/18 05:52:37;;;;;;;1.30;0.80;;;;;8.90;101057.00;;;;5068839;28;20162;-73
2021/07/18 05:55:06;;;;;;;1.88;0.80;;;;;8.90;101048.00;;;;5068588;28;20650;-71
2021/07/18 05:57:33;;;;;;;0.75;0.75;;;;;8.90;101063.00;;;;5068338;28;20116;-72
2021/07/18 06:00:00;;;;;;;2.75;0.65;;;;;8.70;101074.00;;;;5068395;28;20119;-72
2021/07/18 06:02:26;;;;;;;8.38;0.90;;;;;8.70;101072.00;;;;5068440;28;20128;-71
2021/07/18 06:04:53;;;;;;;4.95;1.00;;;;;8.80;101063.00;;;;5069122;28;20020;-72
2021/07/18 06:07:20;;;;;;;6.65;0.80;;;;;8.70;101077.00;;;;5068063;28;20507;-71
2021/07/18 06:09:46;;;;;;;1.42;0.90;;;;;8.50;101082.00;;;;5067575;28;20376;-71
2021/07/18 06:12:13;;;;;;;2.83;0.90;;;;;8.30;101078.00;;;;5068106;28;20037;-70
2021/07/18 06:14:41;;;;;;;1.08;0.90;;;;;8.30;101090.00;;;;5068035;28;20036;-72
2021/07/18 06:17:08;;;;;;;1.33;0.82;;;;;8.40;101095.00;;;;5068208;28;20048;-69
2021/07/18 06:19:34;;;;;;;0.85;0.80;;;;;8.20;101084.00;;;;5068130;28;20036;-72
2021/07/18 06:22:01;;;;;;;4.22;1.08;;;;;8.20;101082.00;;;;5067816;28;20079;-71
2021/07/18 06:24:28;;;;;;;4.22;1.40;;;;;8.10;101073.00;;;;5067768;28;20517;-70
2021/07/18 06:26:54;;;;;;;1.42;0.80;;;;;8.10;101088.00;;;;5067684;28;20294;-68
2021/07/18 06:29:21;;;;;;;1.27;0.90;;;;;8.10;101109.00;;;;5068002;28;20060;-70
2021/07/18 06:31:47;;;;;;;1.50;1.00;;;;;8.00;101077.00;;;;5068156;28;20491;-70
2021/07/18 06:34:14;;;;;;;4.35;1.05;;;;;7.90;101085.00;;;;5066941;28;20107;-69
2021/07/18 06:36:40;;;;;;;1.20;1.10;;;;;7.90;101079.00;;;;5067593;28;20034;-69
2021/07/18 06:39:07;;;;;;;1.65;1.13;;;;;7.80;101083.00;;;;5067744;28;20170;-69
2021/07/18 06:41:34;;;;;;;1.15;1.05;;;;;7.80;101093.00;;;;5067619;28;20496;-68
2021/07/18 06:44:02;;;;;;;1.00;0.75;;;;;7.80;101111.00;;;;5068087;28;20120;-71
2021/07/18 06:46:32;;;;;;;1.90;0.90;;;;;8.00;101112.00;;;;5067668;28;20157;-70
2021/07/18 06:48:59;;;;;;;1.85;0.93;;;;;7.90;101112.00;;;;5067490;28;20016;-69
2021/07/18 06:51:26;;;;;;;2.22;0.70;;;;;7.80;101114.00;;;;5067034;28;20769;-71
2021/07/18 06:53:53;;;;;;;1.98;1.02;;;;;7.90;101104.00;;;;5067559;28;20028;-68
2021/07/18 06:56:19;;;;;;;1.80;0.80;;;;;7.90;101113.00;;;;5067748;28;20032;-71
2021/07/18 06:58:46;;;;;;;3.58;0.70;;;;;7.90;101102.00;;;;5067543;28;20016;-70
2021/07/18 07:01:12;;;;;;;5.53;1.00;;;;;7.90;101103.00;;;;5067367;28;20031;-70
2021/07/18 07:03:39;;;;;;;3.10;0.90;;;;;7.90;101093.00;;;;5067321;28;20028;-69
2021/07/18 07:06:06;;;;;;;0.57;0.57;;;;;7.90;101133.00;;;;5067123;28;20036;-71
2021/07/18 07:08:32;;;;;;;0.60;0.60;;;;;7.70;101108.00;;;;5067341;28;20036;-71
2021/07/18 07:10:59;;;;;;;0.82;0.65;;;;;7.70;101113.00;;;;5066819;28;20040;-70
2021/07/18 07:13:26;;;;;;;4.13;0.75;;;;;7.70;101090.00;;;;5066932;28;20034;-70
2021/07/18 07:15:53;;;;;;;3.03;1.00;;;;;7.60;101106.00;;;;5067139;28;20025;-72
2021/07/18 07:18:19;;;;;;;1.25;0.80;;;;;7.50;101084.00;;;;5066864;28;20848;-70
2021/07/18 07:20:46;;;;;;;5.65;0.98;;;;;7.50;101111.00;;;;5067207;28;20055;-70
2021/07/18 07:23:13;;;;;;;1.83;0.90;;;;;7.60;101107.00;;;;5066583;28;20028;-72
2021/07/18 07:25:39;;;;;;;4.60;0.77;;;;;7.60;101082.00;;;;5066756;28;20038;-69
2021/07/18 07:28:06;;;;;;;2.13;0.70;;;;;7.50;101110.00;;;;5067055;28;20036;-69
2021/07/18 07:30:34;;;;;;;1.50;0.85;;;;;7.50;101105.00;;;;5066749;28;20039;-71
2021/07/18 07:33:01;;;;;;;1.65;0.73;;;;;7.60;101090.00;;;;5066799;28;20501;-69
2021/07/18 07:35:27;;;;;;;1.95;0.90;;;;;7.60;101076.00;;;;5066765;28;20103;-71
2021/07/18 07:37:54;;;;;;;1.40;0.75;;;;;7.50;101073.00;;;;5066386;28;20103;-68
2021/07/18 07:40:21;;;;;;;5.82;1.48;;;;;7.40;101105.00;;;;5066779;28;20028;-69
2021/07/18 07:42:48;;;;;;;1.67;0.70;;;;;7.40;101083.00;;;;5066897;28;20033;-71
2021/07/18 07:45:15;;;;;;;2.40;1.10;;;;;7.30;101084.00;;;;5067356;28;20040;-70
2021/07/18 07:47:42;;;;;;;3.35;1.13;;;;;7.30;101092.00;;;;5066867;28;20503;-70
2021/07/18 07:50:11;;;;;;;0.60;0.50;;;;;7.20;101099.00;;;;5066117;28;20423;-68
2021/07/18 07:52:38;;;;;;;1.15;0.70;;;;;7.10;101081.00;;;;5066520;28;20043;-69
2021/07/18 07:55:06;;;;;;;1.60;0.57;;;;;7.10;101093.00;;;;5066231;28;20024;-70
2021/07/18 07:57:36;;;;;;;6.90;0.70;;;;;7.00;101079.00;;;;5067372;28;20037;-71
2021/07/18 08:00:11;;;;;;;0.50;0.50;;;;;6.90;101103.00;;;;5066573;28;20537;-71
2021/07/18 08:02:37;;;;;;;2.95;0.70;;;;;6.90;101112.00;;;;5066430;28;20157;-73
2021/07/18 08:05:06;;;;;;;1.00;0.70;;;;;7.00;101089.00;;;;5066517;28;20028;-68
2021/07/18 08:07:33;;;;;;;0.63;0.52;;;;;7.00;101092.00;;;;5066921;28;20115;-71
2021/07/18 08:09:59;;;;;;;1.77;0.80;;;;;7.10;101119.00;;;;5066800;28;20032;-71
2021/07/18 08:12:26;;;;;;;4.30;0.60;;;;;7.10;101114.00;;;;5067013;28;20577;-68
2021/07/18 08:14:54;;;;;;;0.50;0.50;;;;;7.00;101109.00;;;;5066314;28;20514;-70
2021/07/18 08:17:21;;;;;;;1.55;0.63;;;;;7.00;101124.00;;;;5066440;28;20032;-70
2021/07/18 08:19:47;;;;;;;0.70;0.57;;;;;6.90;101094.00;;;;5066181;28;20043;-70
2021/07/18 08:22:14;;;;;;;0.98;0.60;;;;;7.00;101110.00;;;;5066338;28;20032;-69
2021/07/18 08:24:41;;;;;;;1.52;0.73;;;;;6.90;101111.00;;;;5066140;28;20526;-70
2021/07/18 08:27:07;;;;;;;1.98;0.80;;;;;6.80;101129.00;;;;5066051;28;20032;-71
2021/07/18 08:29:34;;;;;;;1.10;0.70;;;;;6.70;101132.00;;;;5067025;28;20035;-69
2021/07/18 08:32:02;;;;;;;1.15;0.68;;;;;6.70;101114.00;;;;5066491;28;20028;-70
2021/07/18 08:34:28;;;;;;;3.58;0.80;;;;;6.70;101106.00;;;;5066012;28;20025;-69
2021/07/18 08:36:55;;;;;;;0.80;0.70;;;;;6.50;101146.00;;;;5066849;28;20495;-71
2021/07/18 08:39:21;;;;;;;1.90;0.52;;;;;6.50;101127.00;;;;5066665;28;20048;-71
2021/07/18 08:41:50;;;;;;;4.97;0.90;;;;;6.40;101112.00;;;;5066320;28;20353;-72
2021/07/18 08:44:17;;;;;;;2.10;0.88;;;;;6.40;101122.00;;;;5066087;28;20020;-69
2021/07/18 08:46:44;;;;;;;1.75;0.90;;;;;6.30;101109.00;;;;5066130;28;20056;-71
2021/07/18 08:49:11;;;;;;;1.20;0.70;;;;;6.30;101109.00;;;;5066161;28;20029;-69
2021/07/18 08:51:38;;;;;;;4.82;0.85;;;;;6.30;101118.00;;;;5065898;28;20399;-69
2021/07/18 08:54:06;;;;;;;1.02;0.70;;;;;6.30;101109.00;;;;5065851;28;20039;-71
2021/07/18 08:56:35;;;;;;;2.72;0.90;;;;;6.30;101126.00;;;;5066374;28;20040;-72
2021/07/18 08:59:11;;;;;;;1.15;0.68;;;;;6.30;101104.00;;;;5068206;28;20523;-69
2021/07/18 09:01:42;;;;;;;2.28;0.77;;;;;6.30;101120.00;;;;5069214;28;20388;-72
2021/07/18 09:04:09;;;;;;;2.70;0.70;;;;;6.30;101107.00;;;;5069764;28;20458;-71
2021/07/18 09:06:44;;;;;;;2.13;0.70;;;;;6.30;101115.00;;;;5069571;28;20111;-71
2021/07/18 09:09:15;;;;;;;3.30;0.60;;;;;6.20;101144.00;;;;5069464;28;20074;-70
2021/07/18 09:11:43;;;;;;;2.30;0.70;;;;;6.10;101143.00;;;;5069165;28;20040;-71
2021/07/18 09:14:12;;;;;;;2.95;0.80;;;;;6.20;101128.00;;;;5068901;28;20399;-70
2021/07/18 09:16:41;;;;;;;1.88;0.70;;;;;6.30;101131.00;;;;5068989;28;20028;-71
2021/07/18 09:19:38;;;;;;;2.58;1.35;;;;;6.20;101130.00;;;;5069838;28;20529;-69
2021/07/18 09:22:05;;;;;;;5.03;0.70;;;;;6.20;101132.00;;;;5068087;28;20407;-70
2021/07/18 09:24:47;;;;;;;3.28;0.80;;;;;6.20;101122.00;;;;5069181;28;20844;-69
2021/07/18 09:27:25;;;;;;;3.85;0.77;;;;;6.10;101150.00;;;;5069227;28;20352;-70
2021/07/18 09:29:54;;;;;;;4.78;0.70;;;;;6.00;101146.00;;;;5069263;28;20029;-69
2021/07/18 09:32:25;;;;;;;0.95;0.70;;;;;6.00;101141.00;;;;5069123;28;20028;-69
2021/07/18 09:34:54;;;;;;;2.15;0.65;;;;;6.00;101158.00;;;;5068979;28;20094;-70
2021/07/18 09:37:25;;;;;;;2.15;0.70;;;;;6.00;101154.00;;;;5068716;28;20025;-70
2021/07/18 09:39:57;;;;;;;6.55;0.75;;;;;5.90;101146.00;;;;5069085;28;20036;-70
2021/07/18 09:42:50;;;;;;;3.58;0.70;;;;;5.70;101141.00;;;;5069167;28;20515;-71
2021/07/18 09:45:26;;;;;;;1.08;0.65;;;;;5.70;101156.00;;;;5068856;28;20395;-71
2021/07/18 09:47:59;;;;;;;3.00;0.70;;;;;5.60;101168.00;;;;5068896;28;20024;-71
2021/07/18 09:50:39;;;;;;;4.47;0.82;;;;;5.70;101160.00;;;;5068684;28;20044;-71
2021/07/18 09:53:20;;;;;;;5.43;0.82;;;;;5.80;101149.00;;;;5068907;28;20063;-71
2021/07/18 09:56:03;;;;;;;1.20;0.60;;;;;5.90;101158.00;;;;5068480;28;20066;-70
2021/07/18 09:58:31;;;;;;;8.30;1.23;;;;;6.00;101163.00;;;;5068998;28;20489;-71
2021/07/18 10:00:59;;;;;;;2.25;0.70;;;;;5.90;101176.00;;;;5068235;28;20033;-69
2021/07/18 10:03:27;;;;;;;1.73;0.70;;;;;5.90;101161.00;;;;5068212;28;20032;-69
2021/07/18 10:06:16;;;;;;;5.22;1.00;;;;;5.90;101162.00;;;;5068327;28;20058;-68
2021/07/18 10:08:50;;;;;;;2.70;0.55;;;;;5.90;101164.00;;;;5067951;28;20025;-68
2021/07/18 10:11:19;;;;;;;0.75;0.60;;;;;6.00;101187.00;;;;5068328;28;20112;-71
2021/07/18 10:13:48;;;;;;;2.55;0.70;;;;;6.00;101194.00;;;;5067705;28;20029;-70
2021/07/18 10:16:16;;;;;;;5.30;0.95;;;;;6.00;101182.00;;;;5067817;28;20094;-71
2021/07/18 10:18:45;;;;;;;3.75;0.80;;;;;5.90;101190.00;;;;5068574;28;20123;-71
2021/07/18 10:21:14;;;;;;;2.80;0.70;;;;;5.80;101179.00;;;;5068066;28;20037;-69
2021/07/18 10:23:42;;;;;;;1.05;0.52;;;;;5.90;101164.00;;;;5068337;28;20033;-70
2021/07/18 10:26:17;;;;;;;0.70;0.52;;;;;6.00;101167.00;;;;5067983;28;20426;-71
2021/07/18 10:28:44;;;;;;;5.65;1.08;;;;;6.00;101167.00;;;;5067645;28;20032;-72
2021/07/18 10:31:22;;;;;;;2.85;0.93;;;;;5.90;101178.00;;;;5083264;28;20064;-71
2021/07/18 10:33:49;;;;;;;4.50;1.30;;;;;5.90;101177.00;;;;5067653;28;20028;-69
2021/07/18 10:36:20;;;;;;;4.35;0.90;;;;;6.00;101166.00;;;;5067795;28;20043;-71
2021/07/18 10:38:46;;;;;;;1.52;0.70;;;;;6.00;101164.00;;;;5067576;28;20510;-70
2021/07/18 10:41:15;;;;;;;7.22;0.90;;;;;6.10;101157.00;;;;5067512;28;20583;-69
2021/07/18 10:43:47;;;;;;;0.98;0.70;;;;;6.20;101163.00;;;;5068244;28;20029;-71
2021/07/18 10:46:35;;;;;;;3.55;0.88;;;;;6.30;101143.00;;;;5067749;28;20111;-69
2021/07/18 10:49:02;;;;;;;7.72;1.40;;;;;6.40;101133.00;;;;5067875;28;20021;-70
2021/07/18 10:51:37;;;;;;;2.42;0.73;;;;;7.40;101082.00;;;;5067511;28;20044;-69
2021/07/18 10:54:17;;;;;;;1.42;0.90;;;;;8.90;101023.00;;;;5067528;28;20037;-70
2021/07/18 10:56:46;;;;;;;6.60;1.15;;;;;10.20;101003.00;;;;5067278;28;20032;-70
2021/07/18 10:59:40;;;;;;;3.00;1.45;;;;;11.00;101035.00;;;;5066309;28;20028;-71
2021/07/18 11:02:17;;;;;;;6.22;1.30;;;;;10.50;101069.00;;;;5066925;28;20090;-70
2021/07/18 11:04:52;;;;;;;6.22;1.05;;;;;10.30;101099.00;;;;5067260;28;20032;-70
2021/07/18 11:07:21;;;;;;;7.32;1.27;;;;;9.20;101124.00;;;;5067468;28;20032;-70
2021/07/18 11:09:54;;;;;;;4.00;0.80;;;;;10.40;100991.00;;;;5067652;28;20025;-71
2021/07/18 11:12:34;;;;;;;3.33;1.05;;;;;10.90;101053.00;;;;5066631;28;20111;-71
2021/07/18 11:15:31;;;;;;;5.03;1.00;;;;;11.10;101004.00;;;;5068130;28;20029;-72
2021/07/18 11:18:03;;;;;;;6.82;1.17;;;;;11.30;101019.00;;;;5058263;28;20128;-70
2021/07/18 11:20:36;;;;;;;5.15;1.10;;;;;10.70;101073.00;;;;5066497;28;20059;-69
2021/07/18 11:23:05;;;;;;;9.10;1.23;;;;;12.20;100979.00;;;;5066616;28;20073;-69
2021/07/18 11:25:49;;;;;;;4.55;1.35;;;;;12.20;101060.00;;;;5067010;28;20448;-69
2021/07/18 11:31:14;;;;;;;4.90;1.05;;;;;14.20;100970.00;;;;5066356;28;20041;-70
2021/07/18 11:33:53;;;;;;;7.88;1.38;;;;;15.20;100948.00;;;;5066905;28;20060;-68
2021/07/18 11:36:32;;;;;;;2.70;1.55;;;;;15.50;100928.00;;;;5066877;28;20028;-71
2021/07/18 11:39:00;;;;;;;4.68;1.98;;;;;15.40;100931.00;;;;5066966;28;20060;-72
2021/07/18 11:41:29;;;;;;;9.05;1.50;;;;;15.90;100945.00;;;;5066821;28;20032;-72
2021/07/18 11:44:00;;;;;;;8.93;1.83;;;;;16.00;100921.00;;;;5066844;28;20087;-71
2021/07/18 11:46:32;;;;;;;7.57;2.40;;;;;16.30;100934.00;;;;5066752;28;20400;-69
2021/07/18 11:49:01;;;;;;;4.93;1.83;;;;;16.50;100920.00;;;;5066749;28;20036;-69
2021/07/18 11:51:29;;;;;;;8.57;1.58;;;;;16.60;100912.00;;;;5066346;28;20068;-69
2021/07/18 11:53:59;;;;;;;4.10;1.50;;;;;16.70;100943.00;;;;5066720;28;20506;-71
2021/07/18 11:56:30;;;;;;;12.27;1.63;;;;;16.60;100923.00;;;;5066556;28;20112;-72
2021/07/18 11:59:06;;;;;;;3.72;1.58;;;;;17.10;100913.00;;;;5066527;28;20479;-69
2021/07/18 12:01:35;;;;;;;8.52;1.40;;;;;17.10;100918.00;;;;5066176;28;20086;-69
2021/07/18 12:04:15;;;;;;;6.75;1.65;;;;;17.40;100922.00;;;;5066560;28;20075;-72
2021/07/18 12:06:42;;;;;;;4.05;1.30;;;;;17.80;100950.00;;;;5066596;28;20025;-71
2021/07/18 12:09:12;;;;;;;4.90;1.98;;;;;18.00;100950.00;;;;5066382;28;20025;-70
2021/07/18 12:11:38;;;;;;;3.17;1.08;;;;;17.70;100965.00;;;;5066433;28;20032;-72
2021/07/18 12:14:06;;;;;;;6.53;1.30;;;;;18.00;100969.00;;;;5065945;28;20120;-69
2021/07/18 12:16:33;;;;;;;3.90;1.33;;;;;18.30;100951.00;;;;5066683;28;20028;-72
2021/07/18 12:19:00;;;;;;;5.28;1.15;;;;;18.30;100936.00;;;;5065815;28;20056;-69
2021/07/18 12:21:33;;;;;;;9.57;1.52;;;;;18.60;100956.00;;;;5066218;28;20029;-72